| time (UTC) | temp F | wind direction | speed knots | gust knots | rain 1hr in | rain 24hr in | rain mn in | humidity % | barometer mb |
| 20260502233517 | 64 | 180 | 5.2 | 9.6 | 0.00 | 0.00 | 0.00 | 37 | 1010.1 |
| 20260502232537 | 65 | 203 | 4.3 | 8.7 | 0.00 | 0.00 | 0.00 | 37 | 1010.3 |
| 20260502231517 | 64 | 225 | 5.2 | 12.2 | 0.00 | 0.00 | 0.00 | 37 | 1010.3 |
| 20260502230517 | 64 | 225 | 3.5 | 9.6 | 0.00 | 0.00 | 0.00 | 39 | 1010.5 |
| 20260502225517 | 64 | 203 | 5.2 | 7.0 | 0.00 | 0.00 | 0.00 | 37 | 1010.6 |
| 20260502224518 | 64 | 225 | 3.5 | 6.1 | 0.00 | 0.00 | 0.00 | 38 | 1010.8 |
| 20260502223517 | 64 | 248 | 2.6 | 6.1 | 0.00 | 0.00 | 0.00 | 37 | 1010.8 |
| 20260502222517 | 65 | 225 | 3.5 | 10.4 | 0.00 | 0.00 | 0.00 | 35 | 1010.9 |
| 20260502221517 | 65 | 248 | 3.5 | 8.7 | 0.00 | 0.00 | 0.00 | 35 | 1010.9 |
| 20260502220517 | 65 | 225 | 3.5 | 8.7 | 0.00 | 0.00 | 0.00 | 36 | 1011.1 |
| 20260502215517 | 65 | 248 | 5.2 | 13.0 | 0.00 | 0.00 | 0.00 | 35 | 1011.2 |
| 20260502214517 | 65 | 248 | 3.5 | 8.7 | 0.00 | 0.00 | 0.00 | 37 | 1011.4 |
| 20260502213538 | 65 | 225 | 8.7 | 14.8 | 0.00 | 0.00 | 0.00 | 37 | 1011.6 |
| 20260502212517 | 65 | 225 | 6.1 | 14.8 | 0.00 | 0.00 | 0.00 | 36 | 1011.6 |
| 20260502211517 | 65 | 248 | 5.2 | 13.9 | 0.00 | 0.00 | 0.00 | 35 | 1011.8 |
| 20260502210557 | 64 | 270 | 4.3 | 9.6 | 0.00 | 0.00 | 0.00 | 37 | 1012.0 |
| 20260502205516 | 65 | 270 | 6.1 | 11.3 | 0.00 | 0.00 | 0.00 | 34 | 1012.2 |
| 20260502204537 | 66 | 225 | 5.2 | 10.4 | 0.00 | 0.00 | 0.00 | 39 | 1012.5 |
| 20260502203517 | 66 | 225 | 5.2 | 14.8 | 0.00 | 0.00 | 0.00 | 35 | 1012.8 |
| 20260502202516 | 65 | 225 | 7.0 | 13.0 | 0.00 | 0.00 | 0.00 | 38 | 1013.0 |
| 20260502201517 | 64 | 225 | 7.8 | 13.0 | 0.00 | 0.00 | 0.00 | 37 | 1013.3 |
| 20260502200517 | 64 | 248 | 4.3 | 11.3 | 0.00 | 0.00 | 0.00 | 35 | 1013.5 |
| 20260502195517 | 63 | 225 | 7.0 | 12.2 | 0.00 | 0.00 | 0.00 | 37 | 1013.7 |
| 20260502194517 | 63 | 225 | 7.8 | 18.2 | 0.00 | 0.00 | 0.00 | 38 | 1013.8 |
| 20260502193537 | 62 | 225 | 6.1 | 11.3 | 0.00 | 0.00 | 0.00 | 36 | 1014.0 |
| 20260502192516 | 63 | 225 | 7.0 | 10.4 | 0.00 | 0.00 | 0.00 | 37 | 1014.1 |
| 20260502191516 | 63 | 225 | 9.6 | 13.9 | 0.00 | 0.00 | 0.00 | 36 | 1014.3 |
| 20260502190516 | 62 | 225 | 6.1 | 10.4 | 0.00 | 0.00 | 0.00 | 39 | 1014.5 |
| 20260502185516 | 61 | 203 | 6.1 | 11.3 | 0.00 | 0.00 | 0.00 | 39 | 1014.8 |
| 20260502184516 | 62 | 225 | 6.1 | 12.2 | 0.00 | 0.00 | 0.00 | 39 | 1015.1 |
| 20260502183537 | 61 | 225 | 8.7 | 17.4 | 0.00 | 0.00 | 0.00 | 39 | 1015.1 |
| 20260502182516 | 60 | 225 | 7.8 | 16.5 | 0.00 | 0.00 | 0.00 | 39 | 1015.3 |
| 20260502181517 | 61 | 225 | 5.2 | 12.2 | 0.00 | 0.00 | 0.00 | 39 | 1015.4 |
| 20260502180517 | 60 | 225 | 4.3 | 12.2 | 0.00 | 0.00 | 0.00 | 38 | 1015.5 |
| 20260502170517 | 58 | 225 | 7.0 | 12.2 | 0.00 | 0.00 | 0.00 | 39 | 1016.3 |
| 20260502163516 | 57 | 225 | 3.5 | 8.7 | 0.00 | 0.00 | 0.00 | 40 | 1016.9 |
| 20260502162537 | 57 | 270 | 4.3 | 11.3 | 0.00 | 0.00 | 0.00 | 40 | 1016.9 |
| 20260502161536 | 57 | 248 | 5.2 | 12.2 | 0.00 | 0.00 | 0.00 | 39 | 1017.1 |
| 20260502160516 | 57 | 225 | 3.5 | 10.4 | 0.00 | 0.00 | 0.00 | 42 | 1017.3 |
| 20260502151516 | 54 | 248 | 3.5 | 8.7 | 0.00 | 0.00 | 0.00 | 42 | 1017.7 |
| 20260502150517 | 55 | 248 | 1.7 | 4.3 | 0.00 | 0.00 | 0.00 | 46 | 1017.8 |
| 20260502130516 | 45 | 225 | 1.7 | 2.6 | 0.00 | 0.00 | 0.00 | 66 | 1018.2 |
| 20260502123516 | 40 | 90 | 0.9 | 2.6 | 0.00 | 0.00 | 0.00 | 74 | 1018.2 |
| 20260502122516 | 39 | 68 | 0.9 | 1.7 | 0.00 | 0.00 | 0.00 | 76 | 1018.1 |
| 20260502121536 | 37 | 68 | 1.7 | 3.5 | 0.00 | 0.00 | 0.00 | 78 | 1018.0 |
| 20260502120516 | 36 | 68 | 0.9 | 1.7 | 0.00 | 0.00 | 0.00 | 79 | 1018.0 |
| 20260502115516 | 35 | 225 | 0.9 | 3.5 | 0.00 | 0.00 | 0.00 | 80 | 1017.9 |
| 20260502113516 | 34 | 270 | 0.9 | 1.7 | 0.00 | 0.00 | 0.00 | 80 | 1017.8 |
| 20260502112516 | 34 | 270 | 0.9 | 1.7 | 0.00 | 0.00 | 0.00 | 80 | 1017.8 |
| 20260502111516 | 34 | 270 | 0.9 | 1.7 | 0.00 | 0.00 | 0.00 | 80 | 1017.7 |
| 20260502110516 | 34 | 0.0 | 0.0 | 0.00 | 0.00 | 0.00 | 79 | 1017.7 | |
| 20260502105515 | 34 | 0.0 | 0.0 | 0.00 | 0.00 | 0.00 | 79 | 1017.7 | |
| 20260502104516 | 34 | 0.0 | 0.0 | 0.00 | 0.00 | 0.00 | 79 | 1017.8 | |
| 20260502103515 | 35 | 0.0 | 0.9 | 0.00 | 0.00 | 0.00 | 79 | 1017.8 | |
| 20260502102516 | 35 | 0.0 | 0.9 | 0.00 | 0.00 | 0.00 | 78 | 1017.9 | |
| 20260502101516 | 35 | 0.0 | 0.9 | 0.00 | 0.00 | 0.00 | 78 | 1017.8 | |
| 20260502100516 | 35 | 0.0 | 0.0 | 0.00 | 0.00 | 0.00 | 77 | 1017.8 | |
| 20260502091516 | 36 | 0.0 | 0.0 | 0.00 | 0.00 | 0.00 | 74 | 1017.7 | |
| 20260502090516 | 36 | 0.0 | 0.0 | 0.00 | 0.00 | 0.00 | 72 | 1017.7 | |
| 20260502071515 | 38 | 0.0 | 0.0 | 0.00 | 0.00 | 0.00 | 65 | 1018.0 | |
| 20260502070517 | 38 | 0.0 | 0.0 | 0.00 | 0.00 | 0.00 | 66 | 1018.0 | |
| 20260502065517 | 38 | 0.0 | 0.0 | 0.00 | 0.00 | 0.00 | 67 | 1018.0 | |
| 20260502064518 | 39 | 0.0 | 0.9 | 0.00 | 0.00 | 0.00 | 66 | 1018.1 | |
| 20260502063537 | 39 | 270 | 0.9 | 2.6 | 0.00 | 0.00 | 0.00 | 67 | 1018.2 |
| 20260502062517 | 39 | 0.0 | 1.7 | 0.00 | 0.00 | 0.00 | 66 | 1018.2 | |
| 20260502061538 | 39 | 270 | 0.9 | 1.7 | 0.00 | 0.00 | 0.00 | 66 | 1018.2 |
| 20260502060557 | 39 | 270 | 0.9 | 2.6 | 0.00 | 0.00 | 0.00 | 67 | 1018.2 |
| 20260502055517 | 39 | 0.0 | 1.7 | 0.00 | 0.00 | 0.00 | 66 | 1018.2 | |
| 20260502054537 | 39 | 0.0 | 2.6 | 0.00 | 0.00 | 0.00 | 66 | 1018.2 | |
| 20260502053517 | 39 | 270 | 0.9 | 2.6 | 0.00 | 0.00 | 0.00 | 65 | 1018.2 |
| 20260502052517 | 39 | 0.0 | 0.0 | 0.00 | 0.00 | 0.00 | 65 | 1018.2 | |
| 20260502051517 | 39 | 0.0 | 0.9 | 0.00 | 0.00 | 0.00 | 65 | 1018.1 | |
| 20260502050517 | 40 | 0.0 | 0.0 | 0.00 | 0.00 | 0.00 | 65 | 1018.2 | |
| 20260502045515 | 40 | 0.0 | 0.0 | 0.00 | 0.00 | 0.00 | 64 | 1018.2 | |
| 20260502044517 | 40 | 0.0 | 0.0 | 0.00 | 0.00 | 0.00 | 63 | 1018.0 | |
| 20260502043517 | 41 | 0.0 | 0.0 | 0.00 | 0.00 | 0.00 | 63 | 1018.1 | |
| 20260502042517 | 41 | 0.0 | 0.0 | 0.00 | 0.00 | 0.00 | 61 | 1018.0 | |
| 20260502041518 | 42 | 0.0 | 0.0 | 0.00 | 0.00 | 0.00 | 60 | 1018.0 | |
| 20260502040517 | 42 | 0.0 | 0.0 | 0.00 | 0.00 | 0.00 | 60 | 1018.1 | |
| 20260502035557 | 43 | 0.0 | 0.0 | 0.00 | 0.00 | 0.00 | 58 | 1018.1 | |
| 20260502034518 | 43 | 0.0 | 0.9 | 0.00 | 0.00 | 0.00 | 57 | 1018.1 | |
| 20260502033517 | 44 | 0.0 | 0.9 | 0.00 | 0.00 | 0.00 | 57 | 1018.2 | |
| 20260502032517 | 44 | 270 | 0.9 | 1.7 | 0.00 | 0.00 | 0.00 | 57 | 1018.2 |
| 20260502031517 | 45 | 0.0 | 0.9 | 0.00 | 0.00 | 0.00 | 56 | 1018.1 | |
| 20260502030517 | 45 | 0.0 | 0.0 | 0.00 | 0.00 | 0.00 | 58 | 1018.1 | |
| 20260502025517 | 45 | 270 | 0.9 | 1.7 | 0.00 | 0.00 | 0.00 | 52 | 1018.1 |
| 20260502024517 | 46 | 0.0 | 0.9 | 0.00 | 0.00 | 0.00 | 49 | 1018.1 | |
| 20260502023517 | 47 | 0.0 | 0.9 | 0.00 | 0.00 | 0.00 | 45 | 1018.2 | |
| 20260502022517 | 47 | 0.0 | 0.9 | 0.00 | 0.00 | 0.00 | 46 | 1018.0 | |
| 20260502021658 | 47 | 0.0 | 0.9 | 0.00 | 0.00 | 0.00 | 42 | 1018.0 | |
| 20260502020537 | 47 | 0.0 | 0.9 | 0.00 | 0.00 | 0.00 | 42 | 1017.9 | |
| 20260502015517 | 48 | 0.0 | 1.7 | 0.00 | 0.00 | 0.00 | 40 | 1017.7 | |
| 20260502014517 | 49 | 0.0 | 1.7 | 0.00 | 0.00 | 0.00 | 38 | 1017.6 | |
| 20260502013517 | 50 | 0.0 | 0.9 | 0.00 | 0.00 | 0.00 | 37 | 1017.5 | |
| 20260502012517 | 50 | 0.0 | 1.7 | 0.00 | 0.00 | 0.00 | 35 | 1017.4 | |
| 20260502011517 | 51 | 270 | 0.9 | 3.5 | 0.00 | 0.00 | 0.00 | 34 | 1017.5 |
| 20260502010517 | 51 | 270 | 0.9 | 3.5 | 0.00 | 0.00 | 0.00 | 35 | 1017.5 |
| 20260502005537 | 51 | 270 | 1.7 | 5.2 | 0.00 | 0.00 | 0.00 | 35 | 1017.4 |
| 20260502004517 | 52 | 248 | 0.9 | 2.6 | 0.00 | 0.00 | 0.00 | 35 | 1017.4 |
| 20260502003517 | 52 | 248 | 0.9 | 5.2 | 0.00 | 0.00 | 0.00 | 34 | 1017.5 |
| 20260502002517 | 52 | 23 | 0.9 | 1.7 | 0.00 | 0.00 | 0.00 | 33 | 1017.4 |
| 20260502001517 | 52 | 23 | 1.7 | 2.6 | 0.00 | 0.00 | 0.00 | 34 | 1017.4 |
| 20260502000517 | 52 | 338 | 0.9 | 4.3 | 0.00 | 0.00 | 0.00 | 34 | 1017.5 |
| 20260501235517 | 52 | 293 | 1.7 | 4.3 | 0.00 | 0.00 | 0.00 | 34 | 1017.3 |
| 20260501234517 | 52 | 248 | 0.9 | 3.5 | 0.00 | 0.00 | 0.00 | 35 | 1017.5 |